Time;durP1;ratioP1;P1;durP2;ratioP2;P2;SDS_P1;SDS_P2;PMS_P1;PMS_P2;Temp;Humidity;BMP_temperature;BMP_pressure;BME280_temperature;BME280_humidity;BME280_pressure;Samples;Min_cycle;Max_cycle;Signal;HPM_P1;HPM_P2
2023/03/26 00:01:23;;;;;;;30.77;6.20;;;9.10;91.60;;;;;;5051847;28;20560;-73
2023/03/26 00:03:52;;;;;;;41.97;7.45;;;9.20;88.60;;;;;;5051694;28;20385;-71
2023/03/26 00:06:21;;;;;;;32.90;6.55;;;9.20;86.20;;;;;;5052000;28;20447;-71
2023/03/26 00:08:48;;;;;;;34.97;6.75;;;9.10;89.10;;;;;;5051701;28;20378;-72
2023/03/26 00:11:16;;;;;;;45.88;6.80;;;9.10;86.20;;;;;;5051609;28;20443;-71
2023/03/26 00:13:42;;;;;;;36.90;7.10;;;9.10;86.10;;;;;;5051548;28;20428;-70
2023/03/26 00:16:10;;;;;;;39.75;7.10;;;9.20;84.50;;;;;;5053336;28;20913;-72
2023/03/26 00:18:36;;;;;;;34.60;6.70;;;9.10;85.10;;;;;;5053064;28;20481;-72
2023/03/26 00:21:04;;;;;;;39.80;6.70;;;9.10;87.00;;;;;;5056951;28;20413;-72
2023/03/26 00:23:33;;;;;;;27.17;6.05;;;9.10;84.90;;;;;;5039916;28;20421;-71
2023/03/26 00:26:00;;;;;;;30.10;6.20;;;9.20;84.30;;;;;;5058205;28;20409;-73
2023/03/26 00:28:26;;;;;;;34.50;6.40;;;9.20;86.00;;;;;;5058426;28;20374;-71
2023/03/26 00:31:03;;;;;;;29.95;5.80;;;9.20;82.30;;;;;;5056252;28;20731;-71
2023/03/26 00:33:30;;;;;;;35.55;7.10;;;9.20;83.40;;;;;;5053700;28;20409;-73
2023/03/26 00:35:59;;;;;;;35.90;7.00;;;9.20;81.90;;;;;;5055070;28;20749;-72
2023/03/26 00:38:26;;;;;;;37.35;7.25;;;9.10;82.00;;;;;;5058440;28;20767;-71
2023/03/26 00:40:53;;;;;;;43.50;6.80;;;9.10;83.00;;;;;;5060816;28;20781;-72
2023/03/26 00:43:20;;;;;;;36.40;7.80;;;9.10;83.40;;;;;;5056675;28;20434;-71
2023/03/26 00:45:52;;;;;;;31.90;6.80;;;9.10;81.20;;;;;;5051111;28;20785;-72
2023/03/26 00:48:19;;;;;;;33.58;6.43;;;9.20;82.10;;;;;;5050960;28;20484;-71
2023/03/26 00:50:46;;;;;;;36.63;6.90;;;9.30;79.00;;;;;;5050830;28;20385;-71
2023/03/26 00:53:12;;;;;;;34.88;7.22;;;9.30;80.90;;;;;;5050728;28;20472;-71
2023/03/26 00:55:43;;;;;;;39.10;7.53;;;9.30;78.00;;;;;;5051970;28;20411;-71
2023/03/26 00:58:10;;;;;;;46.23;8.07;;;9.30;77.00;;;;;;5050891;28;20385;-72
2023/03/26 01:00:43;;;;;;;31.08;6.93;;;9.20;79.60;;;;;;5050975;28;20890;-72
2023/03/26 01:03:12;;;;;;;42.15;8.10;;;9.20;80.60;;;;;;5032658;28;20383;-71
2023/03/26 01:05:47;;;;;;;41.88;8.73;;;9.20;79.70;;;;;;5051124;28;20397;-70
2023/03/26 01:08:32;;;;;;;31.73;6.90;;;9.20;79.60;;;;;;5047407;28;20483;-70
2023/03/26 01:11:05;;;;;;;36.85;7.93;;;9.20;80.60;;;;;;5039604;28;20932;-72
2023/03/26 01:13:34;;;;;;;39.30;8.45;;;9.20;82.30;;;;;;5050799;28;20412;-71
2023/03/26 01:16:00;;;;;;;46.03;8.70;;;9.20;85.40;;;;;;5050318;28;20401;-72
2023/03/26 01:18:32;;;;;;;40.67;7.55;;;9.20;82.90;;;;;;5050738;28;20902;-72
2023/03/26 01:21:04;;;;;;;39.10;7.63;;;9.30;81.00;;;;;;5052865;28;20764;-72
2023/03/26 01:23:59;;;;;;;37.25;7.32;;;9.30;81.30;;;;;;5070592;28;20384;-73
2023/03/26 01:26:41;;;;;;;50.42;8.55;;;9.30;82.70;;;;;;5063955;28;20391;-70
2023/03/26 01:29:19;;;;;;;34.97;7.72;;;9.40;80.20;;;;;;5055530;28;20459;-72
2023/03/26 01:31:55;;;;;;;40.10;8.23;;;9.30;82.60;;;;;;5052717;28;20780;-72
2023/03/26 01:34:45;;;;;;;40.97;7.82;;;9.40;80.50;;;;;;5054485;28;20393;-71
2023/03/26 01:37:31;;;;;;;34.97;7.53;;;9.40;78.80;;;;;;5018010;28;20406;-72
2023/03/26 01:40:04;;;;;;;37.13;6.70;;;9.50;78.20;;;;;;5034803;28;20903;-71
2023/03/26 01:42:36;;;;;;;36.30;7.13;;;9.50;76.40;;;;;;5034509;28;20378;-72
2023/03/26 01:45:12;;;;;;;41.53;7.20;;;9.50;77.30;;;;;;5034314;28;20387;-70
2023/03/26 01:47:39;;;;;;;38.58;7.20;;;9.50;77.60;;;;;;5034104;28;20383;-70
2023/03/26 01:50:06;;;;;;;30.73;6.80;;;9.40;78.60;;;;;;5034260;28;20773;-72
2023/03/26 01:52:31;;;;;;;37.20;6.72;;;9.20;82.10;;;;;;5034375;28;20383;-71
2023/03/26 01:54:57;;;;;;;39.95;7.57;;;9.10;83.60;;;;;;5035664;28;20397;-71
2023/03/26 01:57:36;;;;;;;38.10;7.05;;;8.90;84.60;;;;;;5033974;28;20379;-71
2023/03/26 02:00:20;;;;;;;39.13;6.53;;;8.80;86.40;;;;;;5033981;28;20411;-71
2023/03/26 02:03:16;;;;;;;38.20;7.45;;;8.70;88.50;;;;;;5033686;28;20474;-71
2023/03/26 02:06:21;;;;;;;34.83;7.80;;;8.50;90.20;;;;;;5016078;28;20474;-69
2023/03/26 02:08:56;;;;;;;47.63;7.63;;;8.50;92.10;;;;;;5033280;28;20747;-71
2023/03/26 02:11:22;;;;;;;37.50;7.00;;;8.40;92.90;;;;;;5015957;28;20487;-69
2023/03/26 02:13:49;;;;;;;37.40;7.97;;;8.30;94.40;;;;;;5033554;28;20884;-70
2023/03/26 02:16:16;;;;;;;43.28;9.18;;;8.20;95.80;;;;;;5016395;28;20466;-70
2023/03/26 02:18:42;;;;;;;42.50;7.32;;;8.00;98.70;;;;;;5033722;28;20868;-69
2023/03/26 02:21:18;;;;;;;40.35;7.20;;;8.10;99.90;;;;;;5033504;28;20482;-72
2023/03/26 02:23:47;;;;;;;37.77;7.33;;;8.10;99.80;;;;;;5033419;28;20689;-70
2023/03/26 02:26:17;;;;;;;34.55;7.68;;;8.10;98.80;;;;;;5033358;28;20878;-70
2023/03/26 02:28:42;;;;;;;34.50;6.85;;;8.10;98.40;;;;;;5033189;28;20418;-70
2023/03/26 02:31:09;;;;;;;32.03;6.60;;;8.10;97.80;;;;;;5015820;28;20422;-71
2023/03/26 02:33:36;;;;;;;34.03;6.72;;;8.10;97.80;;;;;;5034372;28;20474;-70
2023/03/26 02:36:02;;;;;;;36.35;7.95;;;8.30;95.20;;;;;;5034260;28;20402;-71
2023/03/26 02:38:33;;;;;;;38.92;7.05;;;8.30;93.60;;;;;;5033458;28;20391;-70
2023/03/26 02:40:59;;;;;;;33.90;6.50;;;8.10;95.70;;;;;;5033659;28;20407;-70
2023/03/26 02:43:25;;;;;;;35.90;8.18;;;8.10;96.70;;;;;;5032925;28;20402;-72
2023/03/26 02:45:51;;;;;;;39.13;7.28;;;8.10;96.90;;;;;;5033262;28;20386;-72
2023/03/26 02:48:17;;;;;;;36.28;7.90;;;8.00;97.90;;;;;;5035582;28;20459;-73
2023/03/26 02:50:42;;;;;;;31.42;6.40;;;8.10;96.20;;;;;;5034013;28;20434;-71
2023/03/26 02:53:08;;;;;;;29.67;6.80;;;8.00;97.50;;;;;;5032996;28;20787;-71
2023/03/26 02:55:34;;;;;;;29.13;7.80;;;7.90;98.80;;;;;;5032845;28;20391;-71
2023/03/26 02:57:59;;;;;;;38.83;7.50;;;7.80;99.90;;;;;;5033105;28;20578;-72
2023/03/26 03:00:25;;;;;;;46.85;8.30;;;7.70;99.90;;;;;;5032971;28;20406;-70
2023/03/26 03:02:52;;;;;;;29.65;7.75;;;7.70;99.90;;;;;;5032629;28;20926;-71
2023/03/26 03:05:18;;;;;;;34.85;6.95;;;7.60;99.90;;;;;;5032866;28;20467;-71
2023/03/26 03:07:45;;;;;;;26.85;6.50;;;7.60;99.90;;;;;;5015173;28;20474;-72
2023/03/26 03:10:12;;;;;;;36.20;10.55;;;7.50;99.90;;;;;;5033177;28;20514;-71
2023/03/26 03:12:39;;;;;;;34.73;7.67;;;7.60;99.90;;;;;;5032887;28;20464;-71
2023/03/26 03:15:06;;;;;;;39.38;8.10;;;7.60;99.90;;;;;;5032622;28;20387;-70
2023/03/26 03:17:32;;;;;;;34.00;7.18;;;7.50;99.90;;;;;;5032521;28;20473;-71
2023/03/26 03:19:57;;;;;;;39.80;8.03;;;7.50;99.90;;;;;;5032474;28;20438;-71
2023/03/26 03:22:23;;;;;;;34.77;7.50;;;7.60;99.90;;;;;;5032512;28;20407;-70
2023/03/26 03:24:50;;;;;;;39.90;7.50;;;7.50;99.90;;;;;;5032617;28;20969;-70
2023/03/26 03:27:18;;;;;;;36.00;8.20;;;7.60;99.90;;;;;;5032457;28;20395;-70
2023/03/26 03:29:44;;;;;;;36.78;8.60;;;7.60;99.90;;;;;;5032442;28;20421;-70
2023/03/26 03:32:09;;;;;;;43.83;8.85;;;7.60;99.90;;;;;;5032238;28;20974;-70
2023/03/26 03:34:37;;;;;;;40.60;7.33;;;7.70;99.90;;;;;;5032200;28;20395;-70
2023/03/26 03:37:03;;;;;;;39.67;8.15;;;7.70;99.90;;;;;;5032337;28;20387;-71
2023/03/26 03:39:29;;;;;;;32.50;7.78;;;7.70;99.90;;;;;;5032155;28;20453;-71
2023/03/26 03:41:54;;;;;;;32.78;7.85;;;7.70;99.90;;;;;;5031831;28;20787;-70
2023/03/26 03:44:20;;;;;;;42.88;9.00;;;7.70;99.90;;;;;;5032396;28;20379;-70
2023/03/26 03:46:47;;;;;;;37.85;8.40;;;7.80;99.90;;;;;;5031980;28;20721;-70
2023/03/26 03:49:13;;;;;;;40.40;8.88;;;7.80;99.90;;;;;;5031987;28;20375;-70
2023/03/26 03:51:39;;;;;;;31.83;7.17;;;7.80;99.90;;;;;;5031752;28;20386;-70
2023/03/26 03:54:05;;;;;;;34.63;8.00;;;7.90;99.90;;;;;;5031778;28;20428;-71
2023/03/26 03:56:31;;;;;;;30.13;7.78;;;8.00;99.90;;;;;;5031656;28;20383;-71
2023/03/26 03:58:57;;;;;;;30.40;6.88;;;8.10;99.90;;;;;;5031666;28;20441;-71
2023/03/26 04:01:23;;;;;;;34.95;6.32;;;8.10;99.90;;;;;;5031280;28;20927;-70
2023/03/26 04:03:48;;;;;;;34.58;7.95;;;8.20;99.90;;;;;;5031444;28;20438;-70
2023/03/26 04:06:17;;;;;;;31.77;7.18;;;8.20;99.90;;;;;;5031330;28;20868;-70
2023/03/26 04:08:44;;;;;;;28.27;6.63;;;8.20;99.90;;;;;;5031264;28;20386;-70
2023/03/26 04:11:09;;;;;;;31.73;7.60;;;8.20;99.90;;;;;;5031165;28;20387;-70
2023/03/26 04:13:36;;;;;;;37.47;7.35;;;8.30;99.20;;;;;;5031045;28;20852;-71
2023/03/26 04:16:01;;;;;;;31.00;6.57;;;8.40;97.30;;;;;;5031327;28;20387;-70
2023/03/26 04:18:28;;;;;;;28.87;6.53;;;8.40;97.80;;;;;;5031365;28;20477;-70
2023/03/26 04:20:54;;;;;;;32.63;7.07;;;8.40;97.80;;;;;;5031207;28;20414;-71
2023/03/26 04:23:21;;;;;;;31.35;7.30;;;8.40;98.70;;;;;;5013393;28;20396;-71
2023/03/26 04:25:52;;;;;;;37.22;7.03;;;8.40;99.40;;;;;;5031184;28;20433;-71
2023/03/26 04:28:34;;;;;;;29.85;6.65;;;8.40;99.50;;;;;;5031362;28;20438;-71
2023/03/26 04:31:02;;;;;;;32.05;6.20;;;8.40;99.80;;;;;;5030785;28;20449;-71
2023/03/26 04:33:33;;;;;;;25.45;6.40;;;8.50;99.30;;;;;;5031084;28;20466;-71
2023/03/26 04:36:01;;;;;;;28.92;6.60;;;8.50;98.80;;;;;;5031231;28;20387;-71
2023/03/26 04:38:32;;;;;;;28.90;6.70;;;8.50;99.40;;;;;;5031300;28;20560;-70
2023/03/26 04:40:59;;;;;;;29.75;8.38;;;8.50;99.10;;;;;;5031587;28;20412;-71
2023/03/26 04:43:25;;;;;;;35.08;7.43;;;8.50;99.90;;;;;;5031992;28;20801;-70
2023/03/26 04:45:51;;;;;;;28.95;7.85;;;8.50;99.80;;;;;;5043081;28;20462;-71
2023/03/26 04:48:19;;;;;;;27.83;7.95;;;8.50;99.90;;;;;;5019450;28;20391;-71
2023/03/26 04:50:45;;;;;;;28.20;7.10;;;8.60;99.90;;;;;;5036037;28;20888;-71
2023/03/26 04:53:15;;;;;;;29.35;6.85;;;8.60;99.90;;;;;;5030215;28;20893;-70
2023/03/26 04:55:54;;;;;;;29.77;6.93;;;8.60;99.90;;;;;;5030265;28;20423;-71
2023/03/26 04:58:20;;;;;;;27.35;7.97;;;8.50;99.90;;;;;;5030637;28;20810;-68
2023/03/26 05:00:46;;;;;;;29.73;7.90;;;8.50;99.90;;;;;;5030461;28;20402;-70
2023/03/26 05:03:12;;;;;;;33.25;7.90;;;8.40;99.90;;;;;;5030225;28;20864;-70
2023/03/26 05:05:39;;;;;;;29.00;8.73;;;8.50;99.90;;;;;;5030490;28;20375;-70
2023/03/26 05:08:05;;;;;;;28.70;8.70;;;8.70;99.90;;;;;;5030044;28;20380;-70
2023/03/26 05:10:30;;;;;;;26.47;7.13;;;8.60;99.90;;;;;;5012877;28;20387;-70
2023/03/26 05:12:56;;;;;;;24.23;6.50;;;8.60;99.90;;;;;;5030019;28;20784;-71
2023/03/26 05:15:21;;;;;;;23.15;5.70;;;8.60;99.90;;;;;;5030596;28;20383;-71
2023/03/26 05:17:47;;;;;;;27.52;6.20;;;8.50;99.90;;;;;;5030411;28;20458;-70
2023/03/26 05:20:20;;;;;;;28.30;6.10;;;8.50;99.90;;;;;;5030369;28;20410;-70
2023/03/26 05:22:46;;;;;;;30.38;6.53;;;8.40;99.90;;;;;;5030029;28;20379;-70
2023/03/26 05:25:12;;;;;;;22.20;5.70;;;8.40;99.90;;;;;;5030472;28;20387;-69
2023/03/26 05:27:38;;;;;;;29.00;5.40;;;8.40;99.90;;;;;;5030282;28;20490;-71
2023/03/26 05:30:06;;;;;;;24.40;5.90;;;8.50;99.90;;;;;;5030649;28;20417;-69
2023/03/26 05:32:32;;;;;;;39.80;7.30;;;8.40;99.90;;;;;;5030080;28;20451;-71
2023/03/26 05:34:58;;;;;;;23.03;6.60;;;8.50;99.90;;;;;;5030725;28;20445;-71
2023/03/26 05:37:24;;;;;;;31.63;6.87;;;8.50;99.90;;;;;;5030664;28;20898;-70
2023/03/26 05:39:54;;;;;;;25.23;6.30;;;8.50;99.90;;;;;;5030604;28;20433;-70
2023/03/26 05:42:20;;;;;;;29.98;6.60;;;8.50;99.90;;;;;;5030022;28;20491;-70
2023/03/26 05:44:45;;;;;;;25.75;7.35;;;8.50;99.90;;;;;;5012695;28;20407;-71
2023/03/26 05:47:11;;;;;;;23.63;6.40;;;8.50;99.90;;;;;;5030437;28;20910;-69
2023/03/26 05:49:36;;;;;;;28.92;6.80;;;8.60;99.90;;;;;;5030205;28;20820;-70
2023/03/26 05:52:02;;;;;;;23.13;5.97;;;8.60;99.90;;;;;;5030003;28;20395;-70
2023/03/26 05:54:28;;;;;;;29.15;6.40;;;8.60;99.90;;;;;;5030448;28;20398;-70
2023/03/26 05:56:53;;;;;;;26.25;6.97;;;8.60;99.90;;;;;;5030502;28;20377;-70
2023/03/26 05:59:19;;;;;;;21.55;5.30;;;8.60;99.90;;;;;;5014706;28;20445;-70
2023/03/26 06:01:44;;;;;;;29.35;6.03;;;8.60;99.90;;;;;;5031950;28;20896;-70
2023/03/26 06:04:16;;;;;;;30.15;7.60;;;8.60;99.90;;;;;;5014080;28;20391;-71
2023/03/26 06:06:43;;;;;;;25.08;6.13;;;8.60;99.90;;;;;;5013277;28;20410;-70
2023/03/26 06:09:12;;;;;;;20.20;5.85;;;8.70;99.90;;;;;;5030655;28;20871;-70
2023/03/26 06:11:38;;;;;;;29.52;7.57;;;8.70;99.90;;;;;;5031826;28;20387;-70
2023/03/26 06:14:03;;;;;;;28.05;6.50;;;8.80;99.90;;;;;;5014784;28;20395;-71
2023/03/26 06:16:29;;;;;;;30.07;7.07;;;8.80;99.90;;;;;;5031826;28;20410;-70
2023/03/26 06:18:55;;;;;;;29.97;6.10;;;8.80;99.90;;;;;;5032595;28;20470;-70
2023/03/26 06:21:20;;;;;;;30.23;6.00;;;8.90;99.90;;;;;;5035005;28;20501;-72
2023/03/26 06:23:47;;;;;;;22.58;5.75;;;8.90;99.90;;;;;;5035336;28;20429;-71
2023/03/26 06:26:13;;;;;;;30.35;6.85;;;8.90;99.90;;;;;;5035134;28;20379;-71
2023/03/26 06:28:39;;;;;;;32.23;7.90;;;9.00;99.90;;;;;;5034922;28;20390;-71
2023/03/26 06:31:05;;;;;;;26.10;7.30;;;9.00;99.90;;;;;;5034035;28;20399;-70
2023/03/26 06:33:31;;;;;;;27.55;6.95;;;8.90;99.90;;;;;;5034265;28;20375;-71
2023/03/26 06:35:57;;;;;;;28.70;8.90;;;9.00;99.90;;;;;;5034791;28;20756;-71
2023/03/26 06:38:22;;;;;;;25.43;7.40;;;9.10;99.90;;;;;;5017478;28;20445;-70
2023/03/26 06:40:48;;;;;;;26.50;6.83;;;9.10;99.90;;;;;;5034675;28;20407;-71
2023/03/26 06:43:14;;;;;;;23.03;6.80;;;9.10;99.90;;;;;;5035211;28;20880;-70
2023/03/26 06:45:39;;;;;;;30.30;7.77;;;9.10;99.90;;;;;;5034520;28;20771;-70
2023/03/26 06:48:05;;;;;;;21.90;6.53;;;9.20;99.90;;;;;;5034224;28;20421;-71
2023/03/26 06:50:31;;;;;;;18.60;5.80;;;9.30;97.70;;;;;;5034899;28;20399;-70
2023/03/26 06:52:57;;;;;;;24.15;6.57;;;9.20;97.80;;;;;;5034111;28;20873;-71
2023/03/26 06:55:23;;;;;;;24.85;6.60;;;9.20;99.30;;;;;;5035183;28;20429;-71
2023/03/26 06:57:50;;;;;;;27.20;7.25;;;9.20;99.10;;;;;;5035269;28;20390;-71
2023/03/26 07:00:17;;;;;;;22.52;6.43;;;9.30;99.10;;;;;;5034396;28;20413;-71
2023/03/26 07:02:43;;;;;;;28.27;7.23;;;9.30;97.20;;;;;;5034163;28;20382;-71
2023/03/26 07:05:09;;;;;;;22.47;6.97;;;9.30;97.20;;;;;;5015904;28;20478;-70
2023/03/26 07:07:34;;;;;;;29.17;7.38;;;9.40;98.20;;;;;;5033732;28;20380;-71
2023/03/26 07:10:00;;;;;;;27.45;7.60;;;9.40;99.30;;;;;;5033389;28;20470;-71
2023/03/26 07:12:25;;;;;;;26.05;6.60;;;9.30;99.60;;;;;;5033079;28;20414;-71
2023/03/26 07:14:51;;;;;;;28.85;7.03;;;9.30;99.90;;;;;;5034055;28;20752;-71
2023/03/26 07:17:17;;;;;;;23.15;6.57;;;9.50;97.20;;;;;;5035373;28;20383;-70
2023/03/26 07:19:42;;;;;;;28.85;7.68;;;9.40;96.20;;;;;;5036395;28;20387;-72
2023/03/26 07:22:18;;;;;;;20.98;5.45;;;9.60;96.80;;;;;;5037496;28;20391;-72
2023/03/26 07:24:44;;;;;;;22.33;6.82;;;9.40;95.30;;;;;;5021582;28;20387;-71
2023/03/26 07:27:37;;;;;;;19.38;6.40;;;9.40;97.70;;;;;;5036715;28;20451;-72
2023/03/26 07:30:11;;;;;;;21.83;6.47;;;9.40;98.70;;;;;;5032193;28;20403;-71
2023/03/26 07:32:56;;;;;;;20.05;6.00;;;9.50;99.20;;;;;;5032213;28;20895;-70
2023/03/26 07:35:35;;;;;;;21.05;6.03;;;9.50;99.10;;;;;;5032473;28;20410;-69
2023/03/26 07:38:25;;;;;;;29.05;6.53;;;9.50;99.80;;;;;;5032607;28;20395;-70
2023/03/26 07:41:09;;;;;;;20.90;6.32;;;9.60;97.80;;;;;;5033212;28;20411;-72
2023/03/26 07:43:54;;;;;;;21.02;5.95;;;9.70;98.50;;;;;;5014470;28;20474;-71
2023/03/26 07:46:30;;;;;;;20.45;6.25;;;9.70;96.90;;;;;;5032074;28;20387;-70
2023/03/26 07:48:58;;;;;;;22.50;6.50;;;9.70;97.90;;;;;;5031973;28;20605;-70
2023/03/26 07:51:24;;;;;;;27.05;6.10;;;9.90;95.60;;;;;;5031686;28;20518;-71
2023/03/26 07:53:50;;;;;;;23.52;6.40;;;10.00;94.10;;;;;;5031872;28;20450;-72
2023/03/26 07:56:19;;;;;;;29.20;7.80;;;10.00;94.90;;;;;;5032181;28;20387;-70
2023/03/26 07:59:05;;;;;;;19.75;5.97;;;10.10;93.10;;;;;;5031963;28;20386;-70
2023/03/26 08:01:58;;;;;;;20.30;5.75;;;10.10;92.50;;;;;;5031917;28;20407;-72
2023/03/26 08:04:55;;;;;;;19.77;6.90;;;10.10;93.80;;;;;;5031952;28;20868;-71
2023/03/26 08:07:28;;;;;;;20.08;5.72;;;10.10;93.90;;;;;;5031914;28;20475;-71
2023/03/26 08:10:18;;;;;;;22.17;7.00;;;10.10;92.00;;;;;;5031725;28;20383;-70
2023/03/26 08:13:21;;;;;;;18.48;5.82;;;10.30;93.30;;;;;;5031267;28;20388;-70
2023/03/26 08:16:06;;;;;;;19.77;5.60;;;10.20;91.80;;;;;;5031576;28;20387;-70
2023/03/26 08:18:53;;;;;;;23.85;6.00;;;10.10;91.90;;;;;;5014050;28;20389;-70
2023/03/26 08:21:25;;;;;;;23.02;6.40;;;10.00;94.20;;;;;;5031445;28;20887;-71
2023/03/26 08:24:18;;;;;;;21.98;7.00;;;10.00;95.90;;;;;;5013461;28;20418;-69
2023/03/26 08:27:07;;;;;;;20.73;6.30;;;10.00;97.90;;;;;;5031547;28;20387;-70
2023/03/26 08:29:48;;;;;;;19.93;6.17;;;10.00;98.90;;;;;;5032003;28;20386;-71
2023/03/26 08:32:16;;;;;;;21.35;5.90;;;10.10;98.60;;;;;;5035435;28;20387;-71
2023/03/26 08:34:41;;;;;;;17.10;5.78;;;10.20;93.80;;;;;;5032162;28;20426;-71
2023/03/26 08:37:08;;;;;;;18.00;6.00;;;10.30;93.70;;;;;;5031329;28;20488;-71
2023/03/26 08:39:35;;;;;;;19.73;5.65;;;10.20;94.30;;;;;;5014021;28;20772;-71
2023/03/26 08:42:17;;;;;;;18.58;5.95;;;10.30;93.80;;;;;;5030876;28;20563;-70
2023/03/26 08:45:11;;;;;;;17.25;5.40;;;10.30;93.80;;;;;;5030940;28;20379;-72
2023/03/26 08:48:16;;;;;;;20.05;6.13;;;10.30;92.90;;;;;;5031126;28;20379;-70
2023/03/26 08:51:19;;;;;;;17.30;5.05;;;10.20;92.40;;;;;;5034461;28;20402;-71
2023/03/26 08:53:56;;;;;;;15.57;4.80;;;10.20;94.80;;;;;;5033295;28;20391;-71
2023/03/26 08:56:47;;;;;;;16.13;5.55;;;10.10;94.10;;;;;;5031923;28;20391;-71
2023/03/26 08:59:27;;;;;;;16.38;6.70;;;10.20;95.70;;;;;;5031188;28;20387;-71
2023/03/26 09:02:25;;;;;;;15.43;5.82;;;10.30;96.20;;;;;;5030349;28;20481;-71
2023/03/26 09:05:36;;;;;;;17.67;5.47;;;10.40;93.40;;;;;;5013402;28;20424;-70
2023/03/26 09:08:18;;;;;;;15.65;5.40;;;10.30;92.00;;;;;;5030769;28;20486;-70
2023/03/26 09:11:17;;;;;;;17.85;5.10;;;10.40;90.90;;;;;;5030597;28;20433;-71
2023/03/26 09:14:00;;;;;;;16.60;5.03;;;10.30;93.00;;;;;;5030971;28;20391;-70
2023/03/26 09:16:45;;;;;;;12.88;5.05;;;10.20;94.10;;;;;;5030694;28;20390;-71
2023/03/26 09:19:22;;;;;;;14.43;5.38;;;10.30;92.80;;;;;;5030876;28;20478;-71
2023/03/26 09:22:19;;;;;;;14.95;5.30;;;10.20;93.10;;;;;;5030154;28;20892;-69
2023/03/26 09:24:52;;;;;;;11.45;4.85;;;10.20;91.70;;;;;;5030772;28;20713;-70
2023/03/26 09:27:38;;;;;;;15.88;5.00;;;10.20;93.20;;;;;;5030587;28;20383;-71
2023/03/26 09:30:37;;;;;;;20.67;5.40;;;10.10;94.50;;;;;;5030783;28;20795;-71
2023/03/26 09:33:27;;;;;;;14.90;4.65;;;10.20;93.60;;;;;;5030354;28;20880;-70
2023/03/26 09:36:14;;;;;;;8.95;3.78;;;10.10;89.80;;;;;;5030300;28;20398;-71
2023/03/26 09:38:57;;;;;;;13.15;4.20;;;10.10;88.60;;;;;;5030258;28;20454;-71
2023/03/26 09:41:35;;;;;;;13.57;4.20;;;10.10;85.30;;;;;;5041732;28;20405;-71
2023/03/26 09:44:01;;;;;;;6.73;2.80;;;10.10;83.10;;;;;;5038707;28;20577;-70
2023/03/26 09:47:08;;;;;;;6.03;2.40;;;10.10;77.90;;;;;;5048006;28;20969;-71
2023/03/26 09:49:49;;;;;;;7.03;2.70;;;9.90;74.60;;;;;;5047178;28;20397;-71
2023/03/26 09:52:49;;;;;;;6.60;3.20;;;9.80;75.20;;;;;;5027494;28;20397;-72
2023/03/26 09:55:47;;;;;;;4.47;2.13;;;9.90;77.20;;;;;;5039788;28;20476;-72
2023/03/26 09:58:43;;;;;;;9.38;2.85;;;9.80;78.90;;;;;;5052612;28;20377;-72
2023/03/26 10:01:32;;;;;;;9.38;4.40;;;9.70;80.70;;;;;;5032583;28;20865;-71
2023/03/26 10:04:22;;;;;;;7.70;2.60;;;9.80;84.00;;;;;;5035049;28;20396;-72
2023/03/26 10:06:57;;;;;;;11.60;3.80;;;9.70;82.20;;;;;;5053825;28;20752;-70
2023/03/26 10:09:54;;;;;;;6.80;3.40;;;10.10;80.80;;;;;;5035898;28;20424;-71
2023/03/26 10:12:41;;;;;;;8.98;2.90;;;10.30;76.50;;;;;;5033988;28;20407;-70
2023/03/26 10:15:25;;;;;;;8.27;3.42;;;10.20;76.70;;;;;;5052017;28;20777;-72
2023/03/26 10:18:10;;;;;;;10.23;3.30;;;10.10;79.30;;;;;;5052265;28;20463;-70
2023/03/26 10:20:52;;;;;;;7.90;2.92;;;10.00;79.90;;;;;;5062093;28;20407;-70
2023/03/26 10:23:42;;;;;;;9.80;3.63;;;10.00;77.70;;;;;;5071749;28;20380;-70
2023/03/26 10:26:20;;;;;;;9.13;3.63;;;10.00;74.60;;;;;;5072290;28;20785;-72
2023/03/26 10:29:09;;;;;;;11.03;4.50;;;10.00;72.30;;;;;;5071631;28;20912;-73
2023/03/26 10:31:45;;;;;;;9.02;3.38;;;10.00;78.30;;;;;;5071453;28;20783;-73
2023/03/26 10:34:14;;;;;;;5.75;3.45;;;9.90;81.30;;;;;;5071349;28;20474;-72
2023/03/26 10:36:43;;;;;;;6.45;3.90;;;10.00;74.60;;;;;;5061825;28;20392;-72
2023/03/26 10:39:37;;;;;;;9.18;4.25;;;10.00;77.70;;;;;;5052203;28;20719;-72
2023/03/26 10:42:15;;;;;;;12.73;6.22;;;10.00;76.20;;;;;;5034767;28;20959;-69
2023/03/26 10:45:02;;;;;;;9.98;5.18;;;10.10;76.50;;;;;;5054325;28;20388;-69
2023/03/26 10:47:59;;;;;;;12.68;5.95;;;10.20;76.30;;;;;;5071155;28;20375;-69
2023/03/26 10:50:48;;;;;;;7.82;4.50;;;10.50;75.50;;;;;;5022217;28;20539;-71
2023/03/26 10:53:42;;;;;;;9.63;6.13;;;10.60;72.30;;;;;;5051653;28;20377;-70
2023/03/26 10:56:26;;;;;;;14.17;7.40;;;10.80;68.30;;;;;;5051132;28;20878;-69
2023/03/26 10:58:55;;;;;;;10.20;5.97;;;11.10;65.50;;;;;;5051106;28;20382;-70
2023/03/26 11:01:42;;;;;;;20.75;11.23;;;11.10;64.50;;;;;;5064125;28;20407;-71
2023/03/26 11:04:40;;;;;;;14.27;8.45;;;11.10;64.20;;;;;;5079175;28;20398;-71
2023/03/26 11:07:19;;;;;;;10.90;7.00;;;11.10;64.60;;;;;;5068068;28;20480;-71
2023/03/26 11:10:11;;;;;;;13.80;6.43;;;11.20;57.50;;;;;;5081616;28;20434;-72
2023/03/26 11:12:49;;;;;;;11.05;6.78;;;11.30;57.50;;;;;;5071364;28;20434;-72
2023/03/26 11:15:28;;;;;;;5.37;3.57;;;11.40;59.40;;;;;;5077488;28;20445;-72
2023/03/26 11:18:37;;;;;;;12.45;7.95;;;11.50;52.90;;;;;;5057798;28;20474;-71
2023/03/26 11:21:02;;;;;;;7.07;4.57;;;11.70;55.60;;;;;;5007524;28;20415;-72
2023/03/26 11:23:34;;;;;;;6.50;3.27;;;11.90;53.70;;;;;;5025904;28;20412;-72
2023/03/26 11:26:14;;;;;;;5.80;3.10;;;12.00;54.50;;;;;;5053021;28;20468;-71
2023/03/26 11:29:04;;;;;;;5.57;4.03;;;12.30;51.80;;;;;;5040285;28;20433;-69
2023/03/26 11:31:56;;;;;;;11.63;7.35;;;12.40;49.40;;;;;;5038418;28;20379;-70
2023/03/26 11:34:30;;;;;;;15.75;9.05;;;12.40;50.00;;;;;;5033097;28;20391;-71
2023/03/26 11:36:57;;;;;;;4.82;2.22;;;12.30;49.90;;;;;;5034159;28;20437;-71
2023/03/26 11:39:28;;;;;;;8.88;6.25;;;12.30;47.90;;;;;;5052983;28;20794;-70
2023/03/26 11:42:14;;;;;;;7.50;3.47;;;12.40;51.80;;;;;;5053658;28;20404;-71
2023/03/26 11:44:46;;;;;;;20.38;11.23;;;12.40;52.20;;;;;;5052601;28;20374;-71
2023/03/26 11:47:17;;;;;;;10.77;6.57;;;12.50;49.70;;;;;;5052364;28;20431;-71
2023/03/26 11:49:46;;;;;;;6.40;3.90;;;12.60;48.00;;;;;;5053125;28;20464;-70
2023/03/26 11:52:14;;;;;;;15.60;9.15;;;12.50;47.70;;;;;;5053452;28;20460;-70
2023/03/26 11:54:39;;;;;;;4.30;1.70;;;12.50;50.00;;;;;;5054013;28;20423;-71
2023/03/26 11:57:07;;;;;;;23.17;14.17;;;12.10;47.30;;;;;;5053148;28;20874;-71
2023/03/26 11:59:42;;;;;;;5.80;3.90;;;12.00;54.20;;;;;;5036137;28;20384;-72
2023/03/26 12:02:08;;;;;;;5.20;3.38;;;12.00;55.70;;;;;;5052810;28;20378;-71
2023/03/26 12:04:35;;;;;;;5.65;2.28;;;11.90;52.70;;;;;;5041425;28;20398;-71
2023/03/26 12:07:16;;;;;;;5.83;2.53;;;11.80;52.70;;;;;;5031686;28;20489;-70
2023/03/26 12:10:21;;;;;;;2.70;1.85;;;11.50;54.10;;;;;;5034744;28;20383;-70
2023/03/26 12:12:47;;;;;;;7.43;4.40;;;11.50;55.50;;;;;;4974469;28;20419;-70
2023/03/26 12:15:18;;;;;;;4.63;3.10;;;11.50;59.90;;;;;;5041126;28;20874;-72
2023/03/26 12:17:46;;;;;;;4.95;3.10;;;11.60;55.90;;;;;;5051162;28;20837;-70
2023/03/26 12:20:31;;;;;;;5.70;3.17;;;11.50;53.00;;;;;;5051732;28;20492;-70
2023/03/26 12:22:59;;;;;;;6.18;3.90;;;11.30;55.90;;;;;;5051860;28;20750;-71
2023/03/26 12:25:27;;;;;;;8.90;5.03;;;11.30;56.50;;;;;;5051788;28;20383;-71
2023/03/26 12:28:02;;;;;;;12.15;7.80;;;11.30;56.90;;;;;;5033463;28;20385;-70
2023/03/26 12:30:36;;;;;;;2.60;2.00;;;11.30;58.20;;;;;;5050381;28;20393;-70
2023/03/26 12:33:25;;;;;;;15.07;9.25;;;11.10;57.00;;;;;;5031427;28;20397;-69
2023/03/26 12:35:50;;;;;;;5.22;4.05;;;11.10;59.30;;;;;;5031542;28;20490;-71
2023/03/26 12:38:36;;;;;;;2.30;0.90;;;11.20;58.70;;;;;;5058058;28;20459;-72
2023/03/26 12:41:07;;;;;;;3.08;1.95;;;11.20;54.80;;;;;;5071700;28;20916;-70
2023/03/26 12:43:51;;;;;;;12.38;6.88;;;11.20;57.60;;;;;;5051052;28;20876;-71
2023/03/26 12:46:19;;;;;;;3.75;2.03;;;11.20;58.30;;;;;;5030607;28;20464;-70
2023/03/26 12:48:45;;;;;;;6.97;2.38;;;11.30;56.00;;;;;;5031180;28;20445;-71
2023/03/26 12:51:27;;;;;;;2.75;2.47;;;11.40;55.90;;;;;;5031259;28;20382;-71
2023/03/26 12:54:32;;;;;;;1.90;1.30;;;11.40;56.90;;;;;;5031480;28;20387;-71
2023/03/26 12:57:17;;;;;;;10.57;7.40;;;11.40;56.90;;;;;;5031455;28;20382;-72
2023/03/26 13:00:13;;;;;;;3.10;1.83;;;11.50;56.60;;;;;;5034067;28;20922;-70
2023/03/26 13:03:13;;;;;;;2.70;1.33;;;11.30;51.40;;;;;;5037838;28;20451;-71
2023/03/26 13:06:01;;;;;;;9.20;5.43;;;11.30;55.00;;;;;;5034719;28;20383;-71
2023/03/26 13:09:02;;;;;;;16.52;9.57;;;11.50;56.30;;;;;;5036122;28;20460;-71
2023/03/26 13:12:13;;;;;;;3.65;1.15;;;11.70;54.90;;;;;;5035383;28;20394;-73
2023/03/26 13:14:42;;;;;;;2.20;1.20;;;11.90;51.40;;;;;;4999136;28;20411;-71
2023/03/26 13:17:32;;;;;;;1.27;0.90;;;12.00;50.10;;;;;;5039659;28;20395;-72
2023/03/26 13:20:14;;;;;;;6.18;3.53;;;11.70;48.20;;;;;;5032359;28;20470;-72
2023/03/26 13:23:17;;;;;;;1.13;0.93;;;11.80;55.10;;;;;;5032095;28;20391;-71